Lebork, Poland

12:27 PM CEST on September 15, 2014 (GMT +0200)
NIESIOLOWICE KASZUBY | Change Station
CLOSE
Current Station
Personal Weather Station
Location: NIESIOLOWICE, POMORSKIE, PL
Elevation: 610 ft
Nearby Weather Stations

Elev 610 ft 54.21 °N, 17.85 °E | Updated 16 seconds ago

Clear
Clear
71.2 °F
Feels Like 75 °F
N
8.3
Wind Variable Wind from ESE
Gusts 15.2 mph

Today
High -- | Low -- °F
--% Chance of Precip.
Yesterday
High -- | Low -- °F
Precip. -- in
6:21 AM 7:06 PM
Waning Gibbous, 57% visible
Pressure 30.27 in
Visibility -9999.0 miles
Clouds
Heat Index 75 °F
Dew Point 59 °F
Humidity 65%
Rainfall 0.00 in
Snow Depth Not available.
UV Not available.
Pollen Not available.
Air Quality Not available.
Flu Activity Not available.
METAR EPGD 151000Z 07008KT CAVOK 18/13 Q1025

More Conditions Fewer Conditions

Pressure 30.27 in
Visibility -9999.0 miles
Clouds
Heat Index 75 °F
Dew Point 59 °F
Humidity 65%
Rainfall 0.00 in
Snow Depth Not available.
UV Not available.
Pollen Not available.
Air Quality Not available.
Flu Activity Not available.
METAR EPGD 151000Z 07008KT CAVOK 18/13 Q1025

More Conditions Fewer Conditions

10-Day Weather Forecast

Almanac

Astronomy

Sep. 15, 2014 Rise Set
Actual Time 6:21 AM CEST 7:06 PM CEST
Civil Twilight 5:45 AM CEST 7:42 PM CEST
Nautical Twilight 5:01 AM CEST 8:25 PM CEST
Astronomical Twilight 4:14 AM CEST 9:12 PM CEST
Moon 10:37 PM CEST 2:02 PM CEST
Length of Visible Light 13h 57m
Length of Day
12h 44m
Tomorrow will be 4m 21s shorter.
Waning Gibbous, 57% of the Moon is Illuminated
Today
Waning Gibbous
Sep 15
Last Quarter
Sep 24
New
Oct 1
First Quarter
Oct 8
Full

Yesterday's Extremes

Country Highs Country Lows

Community

WunderPhotos

Upload Photos

1,753,428 photos uploaded!

WunderBlogs® & News

Nearby

Snow Depth

Not available.

Earthquake Activity

City Distance Mag. Time & Date
No recent earthquake activity has been reported nearby.
Minimum magnitude displayed is 2.5.

Coastal Water Temperatures

Place Temperature
No Stations Reporting

Nearby Weather Stations